Time;durP1;ratioP1;P1;durP2;ratioP2;P2;SDS_P1;SDS_P2;PMS_P1;PMS_P2;Temp;Humidity;BMP_temperature;BMP_pressure;BME280_temperature;BME280_humidity;BME280_pressure;Samples;Min_cycle;Max_cycle;Signal;HPM_P1;HPM_P2
2022/04/16 00:02:08;;;;;;;8.32;5.65;;;;;;;4.73;100.00;99453.81;4343469;32;20463;-74
2022/04/16 00:04:35;;;;;;;9.82;7.93;;;;;;;5.00;100.00;99496.56;4353305;32;20039;-72
2022/04/16 00:07:01;;;;;;;9.15;6.93;;;;;;;5.16;100.00;99510.56;4355294;32;20077;-73
2022/04/16 00:09:27;;;;;;;3.22;2.95;;;;;;;4.85;100.00;99459.37;4368005;32;20036;-73
2022/04/16 00:11:54;;;;;;;2.45;2.22;;;;;;;4.78;100.00;99497.75;4370668;32;20077;-73
2022/04/16 00:14:20;;;;;;;5.90;4.28;;;;;;;4.78;100.00;99492.41;4368380;32;20050;-73
2022/04/16 00:16:47;;;;;;;10.13;6.45;;;;;;;4.92;100.00;99520.78;4355405;32;20065;-74
2022/04/16 00:19:14;;;;;;;4.25;3.78;;;;;;;4.69;100.00;99468.56;4356515;32;20093;-73
2022/04/16 00:21:40;;;;;;;8.90;5.22;;;;;;;4.73;100.00;99504.50;4358637;32;20039;-73
2022/04/16 00:24:07;;;;;;;7.25;5.60;;;;;;;4.91;100.00;99503.09;4357086;32;20065;-73
2022/04/16 00:26:40;;;;;;;8.43;6.22;;;;;;;4.84;100.00;99512.94;4363645;32;20047;-72
2022/04/16 00:29:08;;;;;;;6.25;4.87;;;;;;;3.91;100.00;99380.91;4364970;32;20031;-74
2022/04/16 00:31:35;;;;;;;8.45;4.87;;;;;;;4.87;100.00;99515.22;4364114;32;20043;-74
2022/04/16 00:34:01;;;;;;;6.25;3.87;;;;;;;4.65;100.00;99499.34;4371961;32;20039;-73
2022/04/16 00:36:27;;;;;;;5.03;3.65;;;;;;;4.63;100.00;99514.72;4371848;32;20032;-73
2022/04/16 00:38:54;;;;;;;14.07;6.05;;;;;;;4.48;100.00;99508.69;4356817;32;20077;-73
2022/04/16 00:41:22;;;;;;;7.68;6.05;;;;;;;4.27;100.00;99465.13;4371087;32;20081;-75
2022/04/16 00:43:52;;;;;;;3.60;2.87;;;;;;;4.59;100.00;99526.78;4370960;32;20043;-74
2022/04/16 00:46:19;;;;;;;9.80;7.07;;;;;;;4.17;100.00;99470.00;4371100;32;20055;-75
2022/04/16 00:48:46;;;;;;;8.60;5.07;;;;;;;4.51;100.00;99497.63;4371014;32;20087;-75
2022/04/16 00:51:13;;;;;;;3.28;2.78;;;;;;;4.54;100.00;99518.56;4369654;32;20391;-74
2022/04/16 00:53:41;;;;;;;9.25;5.72;;;;;;;4.50;100.00;99517.31;4367029;32;20059;-73
2022/04/16 00:56:10;;;;;;;8.88;5.47;;;;;;;4.65;100.00;99531.34;4371416;32;20090;-73
2022/04/16 00:58:41;;;;;;;5.78;4.35;;;;;;;4.52;100.00;99504.63;4366736;32;20078;-73
2022/04/16 01:01:08;;;;;;;6.62;4.80;;;;;;;4.64;100.00;99516.38;4355878;32;20653;-73
2022/04/16 01:03:35;;;;;;;8.15;4.97;;;;;;;4.65;100.00;99520.66;4355642;32;20064;-73
2022/04/16 01:06:02;;;;;;;7.47;5.07;;;;;;;4.46;100.00;99489.41;4340329;33;20032;-73
2022/04/16 01:08:29;;;;;;;3.45;2.87;;;;;;;4.39;100.00;99477.88;4343080;32;20065;-73
2022/04/16 01:10:55;;;;;;;4.03;3.12;;;;;;;4.70;100.00;99533.41;4361496;32;20089;-73
2022/04/16 01:13:22;;;;;;;6.78;4.62;;;;;;;4.40;100.00;99496.34;4371661;32;20031;-73
2022/04/16 01:15:48;;;;;;;7.37;4.65;;;;;;;4.57;100.00;99520.84;4369962;32;20040;-74
2022/04/16 01:18:15;;;;;;;7.07;4.55;;;;;;;4.60;100.00;99528.44;4368806;32;20043;-73
2022/04/16 01:20:41;;;;;;;5.10;2.28;;;;;;;4.51;100.00;99514.44;4371220;32;20051;-74
2022/04/16 01:23:08;;;;;;;5.05;3.70;;;;;;;4.52;100.00;99533.97;4370027;32;20043;-74
2022/04/16 01:25:35;;;;;;;9.85;4.60;;;;;;;4.20;100.00;99490.94;4370607;32;20040;-74
2022/04/16 01:28:03;;;;;;;4.28;3.47;;;;;;;4.59;100.00;99540.12;4360604;32;20061;-74
2022/04/16 01:30:30;;;;;;;2.72;2.42;;;;;;;4.55;100.00;99557.56;4355199;32;20044;-73
2022/04/16 01:32:57;;;;;;;3.72;2.33;;;;;;;4.03;100.00;99505.59;4354823;32;20039;-74
2022/04/16 01:35:24;;;;;;;4.90;2.58;;;;;;;4.37;100.00;99548.25;4355815;32;20036;-74
2022/04/16 01:37:50;;;;;;;1.80;1.70;;;;;;;4.19;100.00;99515.94;4354473;32;20044;-74
2022/04/16 01:40:16;;;;;;;6.18;3.53;;;;;;;4.48;100.00;99557.53;4354281;32;20133;-75
2022/04/16 01:42:45;;;;;;;8.18;3.22;;;;;;;4.34;100.00;99529.97;4353403;32;20032;-74
2022/04/16 01:45:17;;;;;;;5.53;2.97;;;;;;;4.56;100.00;99548.53;4355937;32;20064;-73
2022/04/16 01:47:44;;;;;;;0.98;0.95;;;;;;;4.24;100.00;99521.50;4355241;32;20057;-74
2022/04/16 01:50:11;;;;;;;6.72;2.80;;;;;;;4.33;100.00;99554.97;4356571;32;20036;-74
2022/04/16 01:52:39;;;;;;;4.95;3.28;;;;;;;4.41;100.00;99563.84;4356030;32;20166;-75
2022/04/16 01:55:06;;;;;;;1.77;1.67;;;;;;;4.44;100.00;99566.13;4354779;32;20048;-74
2022/04/16 01:57:39;;;;;;;6.22;3.08;;;;;;;4.13;100.00;99551.34;4355943;32;20329;-74
2022/04/16 02:00:07;;;;;;;5.25;2.80;;;;;;;4.26;100.00;99575.44;4359402;32;20047;-75
2022/04/16 02:02:35;;;;;;;2.72;2.08;;;;;;;3.93;100.00;99533.41;4364203;32;20055;-75
2022/04/16 02:05:01;;;;;;;3.37;3.00;;;;;;;4.17;100.00;99576.63;4366242;32;20398;-74
2022/04/16 02:07:27;;;;;;;6.85;3.62;;;;;;;4.18;100.00;99562.28;4355815;32;20040;-73
2022/04/16 02:09:54;;;;;;;4.75;1.70;;;;;;;4.23;100.00;99575.84;4355990;32;20347;-74
2022/04/16 02:12:21;;;;;;;3.72;3.17;;;;;;;3.93;100.00;99559.22;4358871;32;20057;-73
2022/04/16 02:14:47;;;;;;;3.53;2.05;;;;;;;4.04;100.00;99573.84;4361010;32;20186;-72
2022/04/16 02:17:14;;;;;;;3.20;1.65;;;;;;;3.77;100.00;99539.03;4367517;32;20044;-73
2022/04/16 02:19:41;;;;;;;2.03;1.83;;;;;;;3.93;100.00;99592.00;4369311;32;20857;-73
2022/04/16 02:22:07;;;;;;;4.05;2.90;;;;;;;3.93;100.00;99592.00;4355381;32;20429;-75
2022/04/16 02:24:35;;;;;;;1.80;1.70;;;;;;;3.78;100.00;99551.31;4355423;32;20048;-73
2022/04/16 02:27:02;;;;;;;2.62;2.35;;;;;;;3.89;100.00;99588.06;4353026;32;20058;-73
2022/04/16 02:29:28;;;;;;;3.05;1.67;;;;;;;3.82;100.00;99579.22;4354980;32;20032;-72
2022/04/16 02:31:55;;;;;;;6.43;3.28;;;;;;;3.91;100.00;99583.41;4354140;33;20039;-73
2022/04/16 02:34:21;;;;;;;4.85;2.53;;;;;;;4.13;100.00;99607.31;4354770;32;20411;-73
2022/04/16 02:36:47;;;;;;;4.70;2.58;;;;;;;3.79;100.00;99568.94;4368758;32;20382;-73
2022/04/16 02:39:15;;;;;;;3.90;2.80;;;;;;;3.90;100.00;99603.06;4366649;32;20051;-73
2022/04/16 02:41:42;;;;;;;1.23;1.23;;;;;;;3.76;100.00;99564.00;4366880;32;20125;-73
2022/04/16 02:47:05;;;;;;;2.10;1.27;;;;;;;3.91;100.00;99620.69;4355452;32;20057;-73
2022/04/16 02:47:08;;;;;;;4.62;1.67;;;;;;;3.58;100.00;99567.94;4355630;32;20434;-74
2022/04/16 02:49:39;;;;;;;4.85;2.67;;;;;;;3.45;100.00;99559.84;4368563;32;20035;-73
2022/04/16 02:52:07;;;;;;;5.95;3.00;;;;;;;3.94;100.00;99620.31;4368458;32;20069;-73
2022/04/16 02:54:33;;;;;;;2.78;1.77;;;;;;;3.90;100.00;99619.03;4356091;32;20308;-73
2022/04/16 02:56:59;;;;;;;3.90;1.65;;;;;;;3.87;100.00;99619.41;4357709;32;20069;-72
2022/04/16 02:59:27;;;;;;;2.60;1.52;;;;;;;3.62;100.00;99593.19;4356847;32;20044;-72
2022/04/16 03:01:54;;;;;;;2.15;1.90;;;;;;;3.65;100.00;99581.31;4359729;32;20032;-74
2022/04/16 03:04:21;;;;;;;1.95;1.48;;;;;;;3.59;100.00;99582.91;4372353;32;20027;-75
2022/04/16 03:06:47;;;;;;;4.18;2.47;;;;;;;3.64;100.00;99583.16;4361523;32;20048;-72
2022/04/16 03:09:14;;;;;;;2.35;2.15;;;;;;;3.96;100.00;99630.78;4371462;32;20178;-72
2022/04/16 03:11:40;;;;;;;11.60;1.92;;;;;;;3.81;100.00;99604.19;4368734;32;20469;-73
2022/04/16 03:19:37;;;;;;;3.22;2.72;;;;;;;3.74;100.00;99630.78;4356334;32;20079;-73
2022/04/16 03:22:10;;;;;;;6.03;2.85;;;;;;;3.67;100.00;99607.75;4354191;32;20036;-74
2022/04/16 03:24:37;;;;;;;4.20;2.78;;;;;;;3.81;100.00;99636.16;4363507;32;20094;-74
2022/04/16 03:27:04;;;;;;;1.30;1.20;;;;;;;3.94;100.00;99646.97;4372425;32;20077;-74
2022/04/16 03:29:32;;;;;;;1.00;1.00;;;;;;;3.49;100.00;99617.00;4360541;32;20430;-73
2022/04/16 03:31:59;;;;;;;4.40;2.03;;;;;;;3.50;100.00;99618.66;4355541;32;20070;-74
2022/04/16 03:34:25;;;;;;;1.12;1.12;;;;;;;3.73;100.00;99657.59;4357597;32;20055;-74
2022/04/16 03:36:52;;;;;;;2.78;1.20;;;;;;;3.33;100.00;99619.91;4344296;32;20028;-74
2022/04/16 03:39:20;;;;;;;2.12;1.60;;;;;;;3.67;100.00;99671.66;4358329;32;20085;-73
2022/04/16 03:41:47;;;;;;;4.72;1.27;;;;;;;3.37;100.00;99618.53;4363408;32;20120;-74
2022/04/16 03:44:14;;;;;;;1.85;1.58;;;;;;;3.68;100.00;99668.00;4356560;32;20056;-73
2022/04/16 03:46:40;;;;;;;1.98;1.67;;;;;;;3.21;100.00;99592.97;4369792;32;20075;-73
2022/04/16 03:49:07;;;;;;;1.73;1.62;;;;;;;3.58;100.00;99669.12;4371845;32;20087;-73
2022/04/16 03:51:33;;;;;;;2.67;2.33;;;;;;;3.56;100.00;99681.81;4372197;32;20402;-73
2022/04/16 03:59:59;;;;;;;2.42;1.70;;;;;;;3.54;100.00;99667.88;4367767;32;20086;-74
2022/04/16 04:02:16;;;;;;;1.95;1.85;;;;;;;3.64;100.00;99689.69;4370856;32;20125;-73
2022/04/16 04:04:46;;;;;;;1.30;1.20;;;;;;;3.22;100.00;99654.00;4364825;32;20385;-73
2022/04/16 04:07:12;;;;;;;1.65;1.55;;;;;;;3.12;100.00;99666.75;4355099;32;20448;-73
2022/04/16 04:09:40;;;;;;;1.12;1.12;;;;;;;3.04;100.00;99666.84;4358391;32;20056;-73
2022/04/16 04:12:13;;;;;;;1.08;1.00;;;;;;;3.15;100.00;99706.31;4357788;32;20091;-72
2022/04/16 04:14:44;;;;;;;1.98;1.20;;;;;;;3.00;100.00;99681.53;4370784;32;20053;-71
2022/04/16 04:17:11;;;;;;;0.90;0.90;;;;;;;3.09;100.00;99707.03;4368258;32;20036;-73
2022/04/16 04:19:40;;;;;;;1.08;1.08;;;;;;;2.99;100.00;99727.78;4371930;32;20051;-73
2022/04/16 04:22:09;;;;;;;1.62;1.27;;;;;;;3.02;100.00;99727.41;4365978;32;20036;-73
2022/04/16 04:24:38;;;;;;;0.45;0.45;;;;;;;3.02;100.00;99727.41;4342870;33;20032;-74
2022/04/16 04:27:06;;;;;;;0.88;0.88;;;;;;;2.53;100.00;99686.19;4347422;32;20154;-74
2022/04/16 04:29:33;;;;;;;0.50;0.50;;;;;;;2.69;100.00;99743.69;4361644;32;20028;-73
2022/04/16 04:32:00;;;;;;;1.00;0.95;;;;;;;2.30;100.00;99699.53;4363453;32;20400;-73
2022/04/16 04:34:27;;;;;;;1.55;1.45;;;;;;;2.52;100.00;99733.22;4361678;32;20040;-72
2022/04/16 04:36:53;;;;;;;2.67;1.77;;;;;;;2.25;100.00;99707.19;4356957;32;20069;-71
2022/04/16 04:39:20;;;;;;;1.35;1.00;;;;;;;2.25;100.00;99705.38;4363358;32;20119;-72
2022/04/16 04:41:46;;;;;;;1.05;1.05;;;;;;;2.13;100.00;99718.25;4370218;32;20134;-69
2022/04/16 04:44:14;;;;;;;1.00;1.00;;;;;;;2.28;100.00;99744.03;4370142;32;20107;-69
2022/04/16 04:46:41;;;;;;;0.70;0.70;;;;;;;2.33;100.00;99760.28;4370198;32;20087;-70
2022/04/16 04:49:08;;;;;;;1.15;0.68;;;;;;;2.18;100.00;99761.06;4356416;32;20104;-71
2022/04/16 04:51:35;;;;;;;1.87;1.37;;;;;;;1.89;100.00;99713.13;4357122;32;20804;-69
2022/04/16 04:54:03;;;;;;;1.05;1.05;;;;;;;2.31;100.00;99772.94;4357934;32;20193;-70
2022/04/16 04:56:29;;;;;;;2.42;1.58;;;;;;;2.33;100.00;99770.91;4355951;32;20031;-70
2022/04/16 04:58:57;;;;;;;1.40;1.30;;;;;;;2.15;100.00;99748.16;4368843;32;20087;-70
2022/04/16 05:01:24;;;;;;;1.30;1.20;;;;;;;2.04;100.00;99727.28;4365124;32;20047;-70
2022/04/16 05:03:50;;;;;;;1.10;1.10;;;;;;;2.30;100.00;99782.75;4358193;32;20559;-70
2022/04/16 05:06:16;;;;;;;1.45;1.35;;;;;;;1.95;100.00;99723.06;4355093;32;20039;-70
2022/04/16 05:08:43;;;;;;;1.75;1.05;;;;;;;2.38;100.00;99792.50;4355144;32;20044;-70
2022/04/16 05:11:10;;;;;;;1.52;1.00;;;;;;;1.90;100.00;99722.72;4364632;32;20028;-72
2022/04/16 05:13:37;;;;;;;1.33;1.25;;;;;;;2.26;100.00;99793.91;4370447;32;20032;-70
2022/04/16 05:16:04;;;;;;;2.25;1.50;;;;;;;2.34;100.00;99799.97;4370367;32;20400;-70
2022/04/16 05:18:30;;;;;;;3.47;1.27;;;;;;;2.13;100.00;99755.44;4361318;32;20433;-70
2022/04/16 05:20:57;;;;;;;0.50;0.50;;;;;;;2.17;100.00;99780.69;4370799;32;20040;-72
2022/04/16 05:23:24;;;;;;;2.37;1.85;;;;;;;2.24;100.00;99804.69;4366823;32;20039;-75
2022/04/16 05:25:51;;;;;;;2.03;1.30;;;;;;;2.33;100.00;99808.13;4355907;32;20944;-71
2022/04/16 05:28:18;;;;;;;2.40;1.48;;;;;;;2.16;100.00;99771.03;4355300;32;20428;-69
2022/04/16 05:30:48;;;;;;;1.40;1.30;;;;;;;2.32;100.00;99806.47;4356237;32;20095;-72
2022/04/16 05:36:06;;;;;;;1.10;1.10;;;;;;;2.31;100.00;99783.56;4354543;32;20043;-71
2022/04/16 05:38:32;;;;;;;1.00;0.85;;;;;;;2.21;100.00;99825.50;4355998;32;20027;-71
2022/04/16 05:40:59;;;;;;;0.93;0.93;;;;;;;2.22;100.00;99822.66;4353623;32;20028;-74
2022/04/16 05:43:26;;;;;;;1.40;1.20;;;;;;;2.16;100.00;99797.59;4360588;32;20064;-71
2022/04/16 05:45:52;;;;;;;1.40;0.93;;;;;;;2.52;100.00;99834.25;4363308;32;20035;-71
2022/04/16 05:48:19;;;;;;;0.60;0.60;;;;;;;2.14;100.00;99801.47;4368859;32;20093;-71
2022/04/16 05:50:46;;;;;;;0.62;0.62;;;;;;;2.44;100.00;99842.28;4369170;32;20388;-72
2022/04/16 05:53:14;;;;;;;0.73;0.73;;;;;;;2.43;100.00;99845.94;4357462;32;20077;-72
2022/04/16 05:55:47;;;;;;;0.60;0.60;;;;;;;2.33;100.00;99847.97;4354170;32;20061;-72
2022/04/16 05:58:15;;;;;;;1.20;1.10;;;;;;;1.88;100.00;99772.53;4366701;32;20183;-71
2022/04/16 06:00:41;;;;;;;3.70;1.02;;;;;;;2.13;100.00;99797.13;4370092;32;20069;-73
2022/04/16 06:03:08;;;;;;;1.00;1.00;;;;;;;2.53;100.00;99825.25;4360573;32;20129;-71
2022/04/16 06:05:35;;;;;;;0.90;0.85;;;;;;;2.31;100.00;99794.19;4369469;32;20124;-72
2022/04/16 06:08:02;;;;;;;1.55;1.05;;;;;;;2.69;100.00;99844.75;4368652;32;20052;-70
2022/04/16 06:10:29;;;;;;;0.70;0.70;;;;;;;2.36;100.00;99803.28;4355753;32;20036;-70
2022/04/16 06:12:56;;;;;;;1.02;0.82;;;;;;;2.55;100.00;99849.00;4354663;32;20070;-70
2022/04/16 06:15:22;;;;;;;1.05;1.02;;;;;;;2.67;100.00;99860.06;4354820;33;20043;-73
2022/04/16 06:17:48;;;;;;;0.93;0.93;;;;;;;2.72;100.00;99861.16;4366700;32;20069;-70
2022/04/16 06:20:15;;;;;;;0.77;0.77;;;;;;;2.51;100.00;99806.00;4370318;32;20055;-70
2022/04/16 06:22:41;;;;;;;1.25;1.10;;;;;;;2.78;100.00;99854.31;4367738;32;20069;-72
2022/04/16 06:25:08;;;;;;;1.65;1.10;;;;;;;2.79;100.00;99845.31;4364541;32;20087;-72
2022/04/16 06:27:39;;;;;;;1.10;1.00;;;;;;;2.81;100.00;99821.19;4362873;32;20074;-74
2022/04/16 06:30:08;;;;;;;1.92;1.12;;;;;;;3.01;100.00;99869.44;4372523;32;20109;-70
2022/04/16 06:32:35;;;;;;;0.65;0.65;;;;;;;2.91;100.00;99843.91;4361546;32;20181;-71
2022/04/16 06:35:05;;;;;;;0.55;0.55;;;;;;;2.92;100.00;99876.66;4360893;32;20443;-71
2022/04/16 06:37:32;;;;;;;1.23;1.23;;;;;;;2.82;100.00;99874.22;4358119;32;20052;-71
2022/04/16 06:39:59;;;;;;;0.70;0.70;;;;;;;2.50;100.00;99836.25;4357196;32;20083;-72
2022/04/16 06:42:26;;;;;;;1.10;1.00;;;;;;;2.75;100.00;99860.00;4356986;32;20060;-70
2022/04/16 06:44:53;;;;;;;0.77;0.77;;;;;;;2.62;100.00;99822.56;4357156;32;20039;-71
2022/04/16 06:47:20;;;;;;;2.08;1.30;;;;;;;2.89;100.00;99835.28;4355795;32;20035;-70
2022/04/16 06:49:46;;;;;;;2.15;0.88;;;;;;;2.92;100.00;99831.44;4356005;32;20066;-72
2022/04/16 06:52:13;;;;;;;0.62;0.62;;;;;;;3.23;100.00;99883.69;4370285;32;20345;-71
2022/04/16 06:54:42;;;;;;;4.03;1.25;;;;;;;3.41;100.00;99886.00;4372588;32;20053;-71
2022/04/16 06:57:08;;;;;;;0.82;0.82;;;;;;;3.65;100.00;99887.59;4362745;32;20424;-72
2022/04/16 06:59:35;;;;;;;2.12;1.27;;;;;;;3.70;100.00;99879.06;4372934;32;20043;-73
2022/04/16 07:02:01;;;;;;;0.68;0.68;;;;;;;3.42;100.00;99839.75;4366217;32;20036;-72
2022/04/16 07:04:28;;;;;;;0.70;0.70;;;;;;;3.18;100.00;99839.00;4357986;32;20068;-73
2022/04/16 07:06:54;;;;;;;1.15;0.57;;;;;;;3.37;100.00;99890.06;4369291;32;20363;-72
2022/04/16 07:09:20;;;;;;;0.88;0.88;;;;;;;3.35;100.00;99887.59;4370116;32;20027;-72
2022/04/16 07:11:47;;;;;;;0.82;0.75;;;;;;;2.90;100.00;99844.91;4357558;32;20052;-72
2022/04/16 07:14:13;;;;;;;1.45;1.25;;;;;;;3.45;100.00;99890.78;4370034;32;20035;-73
2022/04/16 07:16:40;;;;;;;0.93;0.93;;;;;;;3.19;100.00;99830.00;4369490;32;20434;-72
2022/04/16 07:19:07;;;;;;;2.45;0.55;;;;;;;3.42;100.00;99875.19;4359218;32;20049;-73
2022/04/16 07:21:33;;;;;;;1.00;0.82;;;;;;;3.71;100.00;99902.84;4370129;32;20473;-71
2022/04/16 07:23:59;;;;;;;0.82;0.82;;;;;;;3.46;100.00;99899.59;4359743;32;20120;-72
2022/04/16 07:26:27;;;;;;;0.50;0.50;;;;;;;3.36;100.00;99856.47;4356117;32;20051;-72
2022/04/16 07:28:53;;;;;;;1.00;0.98;;;;;;;3.50;100.00;99857.47;4358012;32;20078;-72
2022/04/16 07:31:19;;;;;;;2.15;0.98;;;;;;;3.37;100.00;99911.38;4356048;32;20074;-72
2022/04/16 07:33:46;;;;;;;1.20;0.98;;;;;;;3.31;100.00;99902.25;4367653;32;20319;-73
2022/04/16 07:36:12;;;;;;;0.75;0.75;;;;;;;3.46;100.00;99899.59;4371945;32;20342;-72
2022/04/16 07:38:39;;;;;;;1.05;0.98;;;;;;;3.58;100.00;99914.12;4363112;32;20040;-72
2022/04/16 07:41:05;;;;;;;0.93;0.93;;;;;;;3.18;100.00;99897.56;4355025;33;20108;-74
2022/04/16 07:43:33;;;;;;;1.02;1.02;;;;;;;3.18;100.00;99892.22;4357182;32;20095;-72
2022/04/16 07:45:59;;;;;;;2.92;1.37;;;;;;;3.05;100.00;99881.38;4355647;32;20077;-73
2022/04/16 07:48:26;;;;;;;1.60;1.05;;;;;;;3.02;100.00;99881.72;4355006;32;20044;-76
2022/04/16 07:50:52;;;;;;;1.45;1.25;;;;;;;2.93;100.00;99862.34;4356927;32;20069;-73
2022/04/16 07:53:18;;;;;;;1.52;1.30;;;;;;;3.37;100.00;99912.19;4369621;32;20032;-73
2022/04/16 07:55:45;;;;;;;1.35;1.25;;;;;;;3.58;100.00;99927.44;4370489;32;20055;-72
2022/04/16 07:58:11;;;;;;;1.52;1.33;;;;;;;3.42;100.00;99924.94;4370569;32;20028;-74
2022/04/16 08:00:38;;;;;;;1.48;1.35;;;;;;;3.46;100.00;99920.91;4367940;32;20074;-74
2022/04/16 08:03:05;;;;;;;0.95;0.65;;;;;;;3.79;100.00;99936.56;4356357;32;20855;-72
2022/04/16 08:05:31;;;;;;;0.80;0.80;;;;;;;3.54;100.00;99891.56;4368224;32;20039;-73
2022/04/16 08:07:57;;;;;;;0.77;0.77;;;;;;;3.78;100.00;99950.88;4355979;32;20430;-73
2022/04/16 08:10:24;;;;;;;0.98;0.90;;;;;;;3.71;100.00;99907.34;4368447;32;20061;-73
2022/04/16 08:12:51;;;;;;;1.08;1.08;;;;;;;3.67;100.00;99906.03;4353306;32;20053;-75
2022/04/16 08:15:17;;;;;;;1.23;1.23;;;;;;;4.05;100.00;99930.75;4358603;32;20474;-73
2022/04/16 08:17:44;;;;;;;0.80;0.80;;;;;;;4.11;100.00;99937.19;4355684;32;20146;-74
2022/04/16 08:20:10;;;;;;;1.48;1.37;;;;;;;4.20;100.00;99930.75;4355984;32;20062;-73
2022/04/16 08:22:38;;;;;;;1.00;1.00;;;;;;;4.40;100.00;99935.50;4356767;32;20092;-73
2022/04/16 08:27:51;;;;;;;1.20;1.20;;;;;;;3.95;100.00;99941.69;4356807;32;20391;-73
2022/04/16 08:30:18;;;;;;;1.27;0.90;;;;;;;4.13;100.00;99948.50;4356334;32;20428;-73
2022/04/16 08:32:45;;;;;;;1.65;1.60;;;;;;;3.73;100.00;99910.66;4356705;32;20061;-76
2022/04/16 08:35:14;;;;;;;0.90;0.90;;;;;;;3.98;100.00;99941.31;4356680;32;20285;-73
2022/04/16 08:37:41;;;;;;;1.30;1.00;;;;;;;4.07;100.00;99966.06;4362803;32;20040;-73
2022/04/16 08:40:09;;;;;;;1.30;0.70;;;;;;;4.07;100.00;99970.53;4360871;32;20058;-72
2022/04/16 08:42:37;;;;;;;1.12;1.10;;;;;;;4.07;100.00;99933.22;4359598;32;20422;-75
2022/04/16 08:45:06;;;;;;;1.40;1.00;;;;;;;4.32;100.00;99969.28;4355934;32;20082;-72
2022/04/16 08:47:33;;;;;;;0.40;0.40;;;;;;;4.46;100.00;99921.41;4355148;32;20062;-71
2022/04/16 08:50:01;;;;;;;6.47;1.55;;;;;;;4.50;100.00;99966.19;4356251;32;20446;-71
2022/04/16 08:52:32;;;;;;;3.83;1.42;;;;;;;4.49;100.00;99958.38;4357824;32;20424;-72
2022/04/16 08:55:00;;;;;;;1.35;1.25;;;;;;;4.58;100.00;99967.09;4355762;32;20075;-72
2022/04/16 08:57:26;;;;;;;1.30;1.30;;;;;;;4.31;100.00;99967.59;4345956;32;20373;-76
2022/04/16 08:59:54;;;;;;;2.00;0.73;;;;;;;4.02;100.00;99924.97;4369701;32;20172;-73
2022/04/16 09:02:23;;;;;;;1.30;1.25;;;;;;;4.54;100.00;99969.31;4360942;32;20077;-74
2022/04/16 09:05:00;;;;;;;1.10;1.02;;;;;;;4.53;100.00;99965.81;4352758;32;20098;-72
2022/04/16 09:07:26;;;;;;;1.55;0.85;;;;;;;4.44;100.00;99971.47;4352099;32;20462;-72
2022/04/16 09:09:53;;;;;;;1.12;1.12;;;;;;;4.83;100.00;99986.25;4356956;32;20044;-73
2022/04/16 09:12:20;;;;;;;0.85;0.85;;;;;;;4.56;100.00;99983.28;4358286;32;20065;-73
2022/04/16 09:14:47;;;;;;;0.80;0.80;;;;;;;4.44;100.00;99976.78;4348364;32;20047;-72
2022/04/16 09:17:17;;;;;;;0.98;0.98;;;;;;;4.47;100.00;99997.75;4360332;32;20452;-71
2022/04/16 09:19:52;;;;;;;0.50;0.50;;;;;;;4.49;100.00;99990.38;4363452;32;20408;-71
2022/04/16 09:22:33;;;;;;;2.45;0.77;;;;;;;4.32;100.00;99947.94;4361585;32;20061;-75
2022/04/16 09:25:14;;;;;;;1.40;1.30;;;;;;;4.30;100.00;99957.13;4370705;32;20039;-71
2022/04/16 09:27:49;;;;;;;0.90;0.82;;;;;;;4.39;100.00;99936.50;4362572;32;20077;-72
2022/04/16 09:30:31;;;;;;;1.80;1.52;;;;;;;4.81;100.00;99993.63;4353642;32;20107;-72
2022/04/16 09:33:00;;;;;;;1.10;1.00;;;;;;;4.66;100.00;99910.94;4363790;32;20066;-72
2022/04/16 09:35:35;;;;;;;0.55;0.55;;;;;;;4.65;100.00;99968.81;4357607;32;20040;-72
2022/04/16 09:38:04;;;;;;;12.70;1.73;;;;;;;4.50;100.00;99960.88;4369092;32;20086;-72
2022/04/16 09:40:32;;;;;;;1.20;0.95;;;;;;;4.65;100.00;100006.16;4369967;32;20065;-72
2022/04/16 09:43:01;;;;;;;0.90;0.90;;;;;;;4.78;100.00;99988.66;4360069;32;20109;-71
2022/04/16 09:45:28;;;;;;;2.00;1.08;;;;;;;4.79;100.00;100009.00;4368008;32;20039;-72
2022/04/16 09:47:56;;;;;;;1.58;0.80;;;;;;;5.03;100.00;100008.66;4367981;32;20032;-72
2022/04/16 09:50:25;;;;;;;1.10;1.10;;;;;;;4.88;100.00;100005.19;4371021;32;20043;-72
2022/04/16 09:53:02;;;;;;;1.65;0.98;;;;;;;4.72;100.00;99969.75;4369781;32;20502;-72
2022/04/16 09:55:29;;;;;;;0.95;0.90;;;;;;;4.98;100.00;100015.56;4368210;32;20481;-75
2022/04/16 09:58:04;;;;;;;2.85;1.00;;;;;;;4.77;100.00;99992.34;4369667;32;20063;-72
2022/04/16 10:00:36;;;;;;;0.82;0.80;;;;;;;5.23;100.00;100018.69;4355046;32;20308;-72
2022/04/16 10:03:06;;;;;;;;;;;;;;;5.44;100.00;100018.72;4354023;32;20031;-72
2022/04/16 10:05:33;;;;;;;0.65;0.65;;;;;;;5.23;100.00;100024.03;4366446;32;19956;-72
2022/04/16 10:08:01;;;;;;;0.95;0.90;;;;;;;5.35;100.00;100027.88;4369304;32;20028;-73
2022/04/16 10:10:31;;;;;;;1.40;1.30;;;;;;;5.30;100.00;99982.22;4360459;32;20052;-72
2022/04/16 10:13:04;;;;;;;4.85;1.67;;;;;;;5.94;100.00;100015.19;4370002;32;20043;-73
2022/04/16 10:15:53;;;;;;;0.70;0.70;;;;;;;6.01;100.00;100026.78;4363244;32;20065;-72
2022/04/16 10:18:19;;;;;;;0.40;0.40;;;;;;;5.79;100.00;100032.16;4354966;33;20044;-71
2022/04/16 10:20:52;;;;;;;1.45;1.30;;;;;;;5.35;100.00;100040.41;4353899;32;20069;-74
2022/04/16 10:23:27;;;;;;;28.25;2.35;;;;;;;5.44;100.00;100032.06;4354947;33;20515;-71
2022/04/16 10:26:11;;;;;;;0.73;0.73;;;;;;;5.72;100.00;100033.94;4348621;32;20065;-74
2022/04/16 10:28:43;;;;;;;1.45;1.10;;;;;;;5.55;100.00;99990.66;4364753;32;20028;-74
2022/04/16 10:31:20;;;;;;;1.95;0.88;;;;;;;5.89;100.00;100018.44;4349060;32;20065;-73
2022/04/16 10:34:05;;;;;;;0.88;0.88;;;;;;;5.98;100.00;100021.81;4369553;32;20039;-72
2022/04/16 10:36:37;;;;;;;0.70;0.70;;;;;;;6.40;100.00;100028.06;4364030;32;20044;-73
2022/04/16 10:39:15;;;;;;;0.98;0.90;;;;;;;6.10;100.00;100009.56;4351714;32;20094;-72
2022/04/16 10:41:54;;;;;;;1.87;1.00;;;;;;;6.16;100.00;99992.72;4363975;32;20052;-72
2022/04/16 10:44:21;;;;;;;1.33;1.33;;;;;;;6.27;100.00;100030.63;4360219;32;20063;-71
2022/04/16 10:46:50;;;;;;;5.25;1.20;;;;;;;6.12;100.00;99994.13;4366873;32;20243;-70
2022/04/16 10:49:18;;;;;;;3.67;1.10;;;;;;;6.31;100.00;100005.16;4368867;32;20023;-70
2022/04/16 10:51:45;;;;;;;1.02;1.00;;;;;;;6.29;100.00;100007.22;4353980;33;20036;-74
2022/04/16 10:54:14;;;;;;;1.45;0.85;;;;;;;6.46;100.00;100037.97;4354176;32;20052;-72
2022/04/16 10:56:54;;;;;;;0.80;0.80;;;;;;;6.39;100.00;100034.41;4357533;32;20157;-72
2022/04/16 10:59:38;;;;;;;0.60;0.60;;;;;;;6.47;100.00;100036.09;4365029;32;20057;-71
2022/04/16 11:02:21;;;;;;;1.25;1.12;;;;;;;6.65;100.00;100031.06;4353148;32;20106;-73
2022/04/16 11:05:06;;;;;;;1.08;1.02;;;;;;;7.17;100.00;100019.87;4359806;32;20119;-72
2022/04/16 11:07:38;;;;;;;1.33;1.00;;;;;;;6.65;100.00;100000.78;4363640;32;20452;-72
2022/04/16 11:10:06;;;;;;;2.05;1.33;;;;;;;6.77;100.00;100042.00;4364088;32;20073;-72
2022/04/16 11:12:32;;;;;;;1.12;0.60;;;;;;;6.52;100.00;100039.81;4363067;32;20069;-72
2022/04/16 11:15:00;;;;;;;1.80;0.88;;;;;;;6.68;100.00;99997.69;4362146;32;20076;-75
2022/04/16 11:17:27;;;;;;;21.55;0.80;;;;;;;7.46;99.46;100029.41;4349363;32;20047;-73
2022/04/16 11:20:05;;;;;;;0.50;0.50;;;;;;;7.24;100.00;100020.72;4351099;32;20035;-71
2022/04/16 11:22:35;;;;;;;0.50;0.50;;;;;;;6.87;100.00;100042.44;4358216;32;20040;-74
2022/04/16 11:25:06;;;;;;;0.90;0.90;;;;;;;6.72;100.00;100050.63;4351407;32;20019;-72
2022/04/16 11:35:57;;;;;;;2.20;1.17;;;;;;;7.38;93.16;100010.84;4359218;32;20085;-70
2022/04/16 11:38:26;;;;;;;0.70;0.70;;;;;;;7.60;94.22;100052.50;4357193;32;20056;-70
2022/04/16 11:40:52;;;;;;;0.85;0.85;;;;;;;7.80;95.25;100052.53;4355463;32;20808;-70
2022/04/16 11:43:23;;;;;;;0.70;0.70;;;;;;;7.71;95.18;100043.03;4365305;32;20137;-71
2022/04/16 11:45:51;;;;;;;1.10;1.10;;;;;;;7.45;96.60;100036.63;4358302;32;20044;-70
2022/04/16 11:48:17;;;;;;;5.18;1.50;;;;;;;7.96;96.17;100035.19;4355059;32;20069;-71
2022/04/16 11:50:44;;;;;;;0.80;0.80;;;;;;;8.22;92.37;100044.22;4354343;32;20024;-70
2022/04/16 11:53:14;;;;;;;1.00;0.90;;;;;;;8.29;89.35;100018.19;4366667;32;20206;-70
2022/04/16 11:55:49;;;;;;;1.52;1.30;;;;;;;8.32;80.39;100039.25;4355322;32;20380;-72
2022/04/16 11:58:17;;;;;;;2.08;1.25;;;;;;;8.18;79.45;100010.78;4362042;32;20108;-74
2022/04/16 12:00:51;;;;;;;1.75;1.30;;;;;;;8.47;86.00;100040.87;4358805;32;20040;-72
2022/04/16 12:03:18;;;;;;;1.45;1.17;;;;;;;8.47;87.21;100040.87;4367441;32;20032;-71